sensor_id;sensor_type;location;lat;lon;timestamp;temperature;humidity
19493;DHT22;9887;54.366;10.958;2022-10-31T00:00:46;12.70;99.90
19493;DHT22;9887;54.366;10.958;2022-10-31T00:03:14;12.60;99.90
19493;DHT22;9887;54.366;10.958;2022-10-31T00:05:43;12.60;99.90
19493;DHT22;9887;54.366;10.958;2022-10-31T00:08:11;12.60;99.90
19493;DHT22;9887;54.366;10.958;2022-10-31T00:10:41;12.60;99.90
19493;DHT22;9887;54.366;10.958;2022-10-31T00:13:10;12.60;99.90
19493;DHT22;9887;54.366;10.958;2022-10-31T00:15:39;12.60;99.90
19493;DHT22;9887;54.366;10.958;2022-10-31T00:18:08;12.50;99.90
19493;DHT22;9887;54.366;10.958;2022-10-31T00:20:37;12.50;99.90
19493;DHT22;9887;54.366;10.958;2022-10-31T00:23:06;12.50;99.90
19493;DHT22;9887;54.366;10.958;2022-10-31T00:25:35;12.50;99.90
19493;DHT22;9887;54.366;10.958;2022-10-31T00:28:05;12.50;99.90
19493;DHT22;9887;54.366;10.958;2022-10-31T00:30:33;12.50;99.90
19493;DHT22;9887;54.366;10.958;2022-10-31T00:33:03;12.60;99.90
19493;DHT22;9887;54.366;10.958;2022-10-31T00:35:31;12.60;99.90
19493;DHT22;9887;54.366;10.958;2022-10-31T00:38:00;12.60;99.90
19493;DHT22;9887;54.366;10.958;2022-10-31T00:40:27;12.50;99.90
19493;DHT22;9887;54.366;10.958;2022-10-31T00:42:55;12.60;99.90
19493;DHT22;9887;54.366;10.958;2022-10-31T00:45:25;12.60;99.90
19493;DHT22;9887;54.366;10.958;2022-10-31T00:47:53;12.60;99.90
19493;DHT22;9887;54.366;10.958;2022-10-31T00:50:21;12.60;99.90
19493;DHT22;9887;54.366;10.958;2022-10-31T00:52:48;12.60;99.90
19493;DHT22;9887;54.366;10.958;2022-10-31T00:55:16;12.60;99.90
19493;DHT22;9887;54.366;10.958;2022-10-31T00:57:46;12.60;99.90
19493;DHT22;9887;54.366;10.958;2022-10-31T01:00:14;12.60;99.90
19493;DHT22;9887;54.366;10.958;2022-10-31T01:02:44;12.50;99.90
19493;DHT22;9887;54.366;10.958;2022-10-31T01:05:12;12.50;99.90
19493;DHT22;9887;54.366;10.958;2022-10-31T01:07:41;12.50;99.90
19493;DHT22;9887;54.366;10.958;2022-10-31T01:10:10;12.60;99.90
19493;DHT22;9887;54.366;10.958;2022-10-31T01:12:38;12.60;99.90
19493;DHT22;9887;54.366;10.958;2022-10-31T01:15:07;12.80;99.90
19493;DHT22;9887;54.366;10.958;2022-10-31T01:17:35;12.90;99.90
19493;DHT22;9887;54.366;10.958;2022-10-31T01:20:06;12.80;99.90
19493;DHT22;9887;54.366;10.958;2022-10-31T01:22:34;13.00;99.90
19493;DHT22;9887;54.366;10.958;2022-10-31T01:25:03;12.70;99.90
19493;DHT22;9887;54.366;10.958;2022-10-31T01:27:31;12.80;99.90
19493;DHT22;9887;54.366;10.958;2022-10-31T01:29:59;12.80;99.90
19493;DHT22;9887;54.366;10.958;2022-10-31T01:32:26;12.90;99.90
19493;DHT22;9887;54.366;10.958;2022-10-31T01:34:55;12.80;99.90
19493;DHT22;9887;54.366;10.958;2022-10-31T01:37:24;12.70;99.90
19493;DHT22;9887;54.366;10.958;2022-10-31T01:39:53;12.70;99.90
19493;DHT22;9887;54.366;10.958;2022-10-31T01:42:22;12.70;99.90
19493;DHT22;9887;54.366;10.958;2022-10-31T01:44:56;12.60;99.90
19493;DHT22;9887;54.366;10.958;2022-10-31T01:47:41;12.60;99.90
19493;DHT22;9887;54.366;10.958;2022-10-31T01:50:15;12.50;99.90
19493;DHT22;9887;54.366;10.958;2022-10-31T01:52:52;12.60;99.90
19493;DHT22;9887;54.366;10.958;2022-10-31T01:55:25;12.50;99.90
19493;DHT22;9887;54.366;10.958;2022-10-31T01:57:59;12.60;99.90
19493;DHT22;9887;54.366;10.958;2022-10-31T02:00:29;12.70;99.90
19493;DHT22;9887;54.366;10.958;2022-10-31T02:02:58;12.70;99.90
19493;DHT22;9887;54.366;10.958;2022-10-31T02:05:29;12.70;99.90
19493;DHT22;9887;54.366;10.958;2022-10-31T02:08:03;12.70;99.90
19493;DHT22;9887;54.366;10.958;2022-10-31T02:10:34;12.90;99.90
19493;DHT22;9887;54.366;10.958;2022-10-31T02:13:04;12.90;99.90
19493;DHT22;9887;54.366;10.958;2022-10-31T02:15:36;12.80;99.90
19493;DHT22;9887;54.366;10.958;2022-10-31T02:18:05;12.70;99.90
19493;DHT22;9887;54.366;10.958;2022-10-31T02:20:42;12.60;99.90
19493;DHT22;9887;54.366;10.958;2022-10-31T02:23:36;12.50;99.90
19493;DHT22;9887;54.366;10.958;2022-10-31T02:26:36;12.40;99.90
19493;DHT22;9887;54.366;10.958;2022-10-31T02:29:33;12.60;99.90
19493;DHT22;9887;54.366;10.958;2022-10-31T02:32:11;12.40;99.90
19493;DHT22;9887;54.366;10.958;2022-10-31T02:34:47;12.40;99.90
19493;DHT22;9887;54.366;10.958;2022-10-31T02:37:23;12.40;99.90
19493;DHT22;9887;54.366;10.958;2022-10-31T02:39:56;12.40;99.90
19493;DHT22;9887;54.366;10.958;2022-10-31T02:42:47;12.40;99.90
19493;DHT22;9887;54.366;10.958;2022-10-31T02:45:22;12.40;99.90
19493;DHT22;9887;54.366;10.958;2022-10-31T02:47:54;12.40;99.90
19493;DHT22;9887;54.366;10.958;2022-10-31T02:50:28;12.50;99.90
19493;DHT22;9887;54.366;10.958;2022-10-31T02:52:57;12.60;99.90
19493;DHT22;9887;54.366;10.958;2022-10-31T02:55:49;12.60;99.90
19493;DHT22;9887;54.366;10.958;2022-10-31T02:58:21;12.70;99.90
19493;DHT22;9887;54.366;10.958;2022-10-31T03:03:57;12.80;99.90
19493;DHT22;9887;54.366;10.958;2022-10-31T03:06:33;12.80;99.90
19493;DHT22;9887;54.366;10.958;2022-10-31T03:09:11;12.80;99.90
19493;DHT22;9887;54.366;10.958;2022-10-31T03:11:48;12.70;99.90
19493;DHT22;9887;54.366;10.958;2022-10-31T03:14:24;12.80;99.90
19493;DHT22;9887;54.366;10.958;2022-10-31T03:16:59;12.80;99.90
19493;DHT22;9887;54.366;10.958;2022-10-31T03:19:34;12.80;99.90
19493;DHT22;9887;54.366;10.958;2022-10-31T03:22:07;12.90;99.90
19493;DHT22;9887;54.366;10.958;2022-10-31T03:24:39;12.90;99.90
19493;DHT22;9887;54.366;10.958;2022-10-31T03:27:10;12.90;99.90
19493;DHT22;9887;54.366;10.958;2022-10-31T03:29:40;12.90;99.90
19493;DHT22;9887;54.366;10.958;2022-10-31T03:32:13;13.00;99.90
19493;DHT22;9887;54.366;10.958;2022-10-31T03:34:46;13.00;99.90
19493;DHT22;9887;54.366;10.958;2022-10-31T03:37:18;13.00;99.90
19493;DHT22;9887;54.366;10.958;2022-10-31T03:39:48;13.00;99.90
19493;DHT22;9887;54.366;10.958;2022-10-31T03:42:23;13.00;99.90
19493;DHT22;9887;54.366;10.958;2022-10-31T03:44:55;13.00;99.90
19493;DHT22;9887;54.366;10.958;2022-10-31T03:47:24;13.00;99.90
19493;DHT22;9887;54.366;10.958;2022-10-31T03:49:53;13.00;99.90
19493;DHT22;9887;54.366;10.958;2022-10-31T03:52:26;13.10;99.90
19493;DHT22;9887;54.366;10.958;2022-10-31T03:54:58;13.10;99.90
19493;DHT22;9887;54.366;10.958;2022-10-31T03:57:35;13.10;99.90
19493;DHT22;9887;54.366;10.958;2022-10-31T04:00:08;13.20;99.90
19493;DHT22;9887;54.366;10.958;2022-10-31T04:02:49;13.20;99.90
19493;DHT22;9887;54.366;10.958;2022-10-31T04:05:20;13.20;99.90
19493;DHT22;9887;54.366;10.958;2022-10-31T04:07:53;13.20;99.90
19493;DHT22;9887;54.366;10.958;2022-10-31T04:10:23;13.30;99.90
19493;DHT22;9887;54.366;10.958;2022-10-31T04:13:02;13.30;99.90
19493;DHT22;9887;54.366;10.958;2022-10-31T04:15:38;13.30;99.90
19493;DHT22;9887;54.366;10.958;2022-10-31T04:18:08;13.30;99.90
19493;DHT22;9887;54.366;10.958;2022-10-31T04:20:40;13.40;99.90
19493;DHT22;9887;54.366;10.958;2022-10-31T04:23:24;13.40;99.90
19493;DHT22;9887;54.366;10.958;2022-10-31T04:25:52;13.40;99.90
19493;DHT22;9887;54.366;10.958;2022-10-31T04:28:21;13.40;99.90
19493;DHT22;9887;54.366;10.958;2022-10-31T04:30:49;13.40;99.90
19493;DHT22;9887;54.366;10.958;2022-10-31T04:33:16;13.50;99.90
19493;DHT22;9887;54.366;10.958;2022-10-31T04:35:47;13.50;99.90
19493;DHT22;9887;54.366;10.958;2022-10-31T04:38:15;13.50;99.90
19493;DHT22;9887;54.366;10.958;2022-10-31T04:40:44;13.50;99.90
19493;DHT22;9887;54.366;10.958;2022-10-31T04:43:31;13.50;99.90
19493;DHT22;9887;54.366;10.958;2022-10-31T04:46:00;13.60;99.90
19493;DHT22;9887;54.366;10.958;2022-10-31T04:48:28;13.60;99.90
19493;DHT22;9887;54.366;10.958;2022-10-31T04:51:00;13.60;99.90
19493;DHT22;9887;54.366;10.958;2022-10-31T04:53:28;13.60;99.90
19493;DHT22;9887;54.366;10.958;2022-10-31T04:56:16;13.70;99.90
19493;DHT22;9887;54.366;10.958;2022-10-31T04:58:46;13.70;99.90
19493;DHT22;9887;54.366;10.958;2022-10-31T05:01:14;13.70;99.90
19493;DHT22;9887;54.366;10.958;2022-10-31T05:03:44;13.70;99.90
19493;DHT22;9887;54.366;10.958;2022-10-31T05:06:13;13.70;99.90
19493;DHT22;9887;54.366;10.958;2022-10-31T05:08:43;13.70;99.90
19493;DHT22;9887;54.366;10.958;2022-10-31T05:11:11;13.70;99.90
19493;DHT22;9887;54.366;10.958;2022-10-31T05:13:39;13.80;99.90
19493;DHT22;9887;54.366;10.958;2022-10-31T05:16:13;13.80;99.90
19493;DHT22;9887;54.366;10.958;2022-10-31T05:19:15;13.70;99.90
19493;DHT22;9887;54.366;10.958;2022-10-31T05:22:20;13.70;99.90
19493;DHT22;9887;54.366;10.958;2022-10-31T05:24:48;13.80;99.90
19493;DHT22;9887;54.366;10.958;2022-10-31T05:27:15;13.80;99.90
19493;DHT22;9887;54.366;10.958;2022-10-31T05:29:43;13.80;99.90
19493;DHT22;9887;54.366;10.958;2022-10-31T05:32:11;13.80;99.90
19493;DHT22;9887;54.366;10.958;2022-10-31T05:35:09;13.80;99.90
19493;DHT22;9887;54.366;10.958;2022-10-31T05:38:02;13.80;99.90
19493;DHT22;9887;54.366;10.958;2022-10-31T05:40:30;13.80;99.90
19493;DHT22;9887;54.366;10.958;2022-10-31T05:42:58;13.80;99.90
19493;DHT22;9887;54.366;10.958;2022-10-31T05:45:27;13.80;99.90
19493;DHT22;9887;54.366;10.958;2022-10-31T05:48:00;13.80;99.90
19493;DHT22;9887;54.366;10.958;2022-10-31T05:50:49;13.80;99.90
19493;DHT22;9887;54.366;10.958;2022-10-31T05:53:18;13.80;99.90
19493;DHT22;9887;54.366;10.958;2022-10-31T05:55:46;13.90;99.90
19493;DHT22;9887;54.366;10.958;2022-10-31T05:58:18;13.90;99.90
19493;DHT22;9887;54.366;10.958;2022-10-31T06:00:58;13.90;99.90
19493;DHT22;9887;54.366;10.958;2022-10-31T06:03:26;13.90;99.90
19493;DHT22;9887;54.366;10.958;2022-10-31T06:05:59;13.90;99.90
19493;DHT22;9887;54.366;10.958;2022-10-31T06:08:33;13.90;99.90
19493;DHT22;9887;54.366;10.958;2022-10-31T06:11:04;13.90;99.90
19493;DHT22;9887;54.366;10.958;2022-10-31T06:14:05;13.90;99.90
19493;DHT22;9887;54.366;10.958;2022-10-31T06:16:48;13.90;99.90
19493;DHT22;9887;54.366;10.958;2022-10-31T06:19:36;13.90;99.90
19493;DHT22;9887;54.366;10.958;2022-10-31T06:22:04;13.90;99.90
19493;DHT22;9887;54.366;10.958;2022-10-31T06:24:33;13.90;99.90
19493;DHT22;9887;54.366;10.958;2022-10-31T06:27:20;13.80;99.90
19493;DHT22;9887;54.366;10.958;2022-10-31T06:29:48;13.90;99.90
19493;DHT22;9887;54.366;10.958;2022-10-31T06:32:27;13.90;99.90
19493;DHT22;9887;54.366;10.958;2022-10-31T06:34:55;13.80;99.90
19493;DHT22;9887;54.366;10.958;2022-10-31T06:37:23;13.80;99.90
19493;DHT22;9887;54.366;10.958;2022-10-31T06:39:55;13.80;99.90
19493;DHT22;9887;54.366;10.958;2022-10-31T06:42:23;13.70;99.90
19493;DHT22;9887;54.366;10.958;2022-10-31T06:44:51;13.70;99.90
19493;DHT22;9887;54.366;10.958;2022-10-31T06:47:50;13.60;99.90
19493;DHT22;9887;54.366;10.958;2022-10-31T06:50:51;13.60;99.90
19493;DHT22;9887;54.366;10.958;2022-10-31T06:53:25;13.60;99.90
19493;DHT22;9887;54.366;10.958;2022-10-31T06:55:57;13.60;99.90
19493;DHT22;9887;54.366;10.958;2022-10-31T06:58:25;13.60;99.90
19493;DHT22;9887;54.366;10.958;2022-10-31T07:00:59;13.60;99.90
19493;DHT22;9887;54.366;10.958;2022-10-31T07:03:27;13.50;99.90
19493;DHT22;9887;54.366;10.958;2022-10-31T07:05:56;13.50;99.90
19493;DHT22;9887;54.366;10.958;2022-10-31T07:08:24;13.40;99.90
19493;DHT22;9887;54.366;10.958;2022-10-31T07:10:54;13.40;99.90
19493;DHT22;9887;54.366;10.958;2022-10-31T07:13:25;13.30;99.90
19493;DHT22;9887;54.366;10.958;2022-10-31T07:16:07;13.30;99.90
19493;DHT22;9887;54.366;10.958;2022-10-31T07:18:37;13.30;99.90
19493;DHT22;9887;54.366;10.958;2022-10-31T07:21:05;13.30;99.90
19493;DHT22;9887;54.366;10.958;2022-10-31T07:23:33;13.30;99.90
19493;DHT22;9887;54.366;10.958;2022-10-31T07:26:24;13.30;99.90
19493;DHT22;9887;54.366;10.958;2022-10-31T07:28:53;13.30;99.90
19493;DHT22;9887;54.366;10.958;2022-10-31T07:31:24;13.30;99.90
19493;DHT22;9887;54.366;10.958;2022-10-31T07:33:54;13.20;99.90
19493;DHT22;9887;54.366;10.958;2022-10-31T07:36:25;13.20;99.90
19493;DHT22;9887;54.366;10.958;2022-10-31T07:38:57;13.20;99.90
19493;DHT22;9887;54.366;10.958;2022-10-31T07:41:26;13.20;99.90
19493;DHT22;9887;54.366;10.958;2022-10-31T07:43:55;13.20;99.90
19493;DHT22;9887;54.366;10.958;2022-10-31T07:46:29;13.20;99.90
19493;DHT22;9887;54.366;10.958;2022-10-31T07:49:15;13.20;99.90
19493;DHT22;9887;54.366;10.958;2022-10-31T07:52:01;13.20;99.90
19493;DHT22;9887;54.366;10.958;2022-10-31T07:54:52;13.20;99.90
19493;DHT22;9887;54.366;10.958;2022-10-31T07:57:22;13.20;99.90
19493;DHT22;9887;54.366;10.958;2022-10-31T07:59:52;13.20;99.90
19493;DHT22;9887;54.366;10.958;2022-10-31T08:02:22;13.20;99.90
19493;DHT22;9887;54.366;10.958;2022-10-31T08:05:08;13.20;99.90
19493;DHT22;9887;54.366;10.958;2022-10-31T08:08:12;13.10;99.90
19493;DHT22;9887;54.366;10.958;2022-10-31T08:10:40;13.20;99.90
19493;DHT22;9887;54.366;10.958;2022-10-31T08:13:10;13.20;99.90
19493;DHT22;9887;54.366;10.958;2022-10-31T08:15:43;13.30;99.90
19493;DHT22;9887;54.366;10.958;2022-10-31T08:18:17;13.30;99.90
19493;DHT22;9887;54.366;10.958;2022-10-31T08:20:45;13.30;99.90
19493;DHT22;9887;54.366;10.958;2022-10-31T08:23:12;13.30;99.90
19493;DHT22;9887;54.366;10.958;2022-10-31T08:25:42;13.40;99.90
19493;DHT22;9887;54.366;10.958;2022-10-31T08:28:11;13.40;99.90
19493;DHT22;9887;54.366;10.958;2022-10-31T08:30:43;13.50;99.90
19493;DHT22;9887;54.366;10.958;2022-10-31T08:33:31;13.50;99.90
19493;DHT22;9887;54.366;10.958;2022-10-31T08:36:28;13.50;99.90
19493;DHT22;9887;54.366;10.958;2022-10-31T08:39:09;13.50;99.90
19493;DHT22;9887;54.366;10.958;2022-10-31T08:41:38;13.60;99.90
19493;DHT22;9887;54.366;10.958;2022-10-31T08:44:10;13.60;99.90
19493;DHT22;9887;54.366;10.958;2022-10-31T08:46:39;13.60;99.90
19493;DHT22;9887;54.366;10.958;2022-10-31T08:49:07;13.60;99.90
19493;DHT22;9887;54.366;10.958;2022-10-31T08:51:35;13.70;99.90
19493;DHT22;9887;54.366;10.958;2022-10-31T08:54:03;13.60;99.90
19493;DHT22;9887;54.366;10.958;2022-10-31T08:57:06;13.70;99.90
19493;DHT22;9887;54.366;10.958;2022-10-31T08:59:43;13.70;99.90
19493;DHT22;9887;54.366;10.958;2022-10-31T09:02:45;13.70;99.90
19493;DHT22;9887;54.366;10.958;2022-10-31T09:05:13;13.70;99.90
19493;DHT22;9887;54.366;10.958;2022-10-31T09:07:41;13.70;99.90
19493;DHT22;9887;54.366;10.958;2022-10-31T09:10:09;13.70;99.90
19493;DHT22;9887;54.366;10.958;2022-10-31T09:12:37;13.80;99.90
19493;DHT22;9887;54.366;10.958;2022-10-31T09:15:42;13.80;99.90
19493;DHT22;9887;54.366;10.958;2022-10-31T09:18:22;13.80;99.90
19493;DHT22;9887;54.366;10.958;2022-10-31T09:21:00;13.80;99.90
19493;DHT22;9887;54.366;10.958;2022-10-31T09:23:30;13.90;99.90
19493;DHT22;9887;54.366;10.958;2022-10-31T09:26:00;13.90;99.90
19493;DHT22;9887;54.366;10.958;2022-10-31T09:28:34;13.80;99.90
19493;DHT22;9887;54.366;10.958;2022-10-31T09:31:08;13.80;99.90
19493;DHT22;9887;54.366;10.958;2022-10-31T09:34:06;13.80;99.90
19493;DHT22;9887;54.366;10.958;2022-10-31T09:36:34;13.80;99.90
19493;DHT22;9887;54.366;10.958;2022-10-31T09:39:04;13.80;99.90
19493;DHT22;9887;54.366;10.958;2022-10-31T09:41:47;13.80;99.90
19493;DHT22;9887;54.366;10.958;2022-10-31T09:44:28;13.80;99.90
19493;DHT22;9887;54.366;10.958;2022-10-31T09:47:02;13.80;99.90
19493;DHT22;9887;54.366;10.958;2022-10-31T09:49:42;13.80;99.90
19493;DHT22;9887;54.366;10.958;2022-10-31T09:52:20;13.80;99.90
19493;DHT22;9887;54.366;10.958;2022-10-31T09:54:53;13.70;99.90
19493;DHT22;9887;54.366;10.958;2022-10-31T09:57:27;13.70;99.90
19493;DHT22;9887;54.366;10.958;2022-10-31T09:59:56;13.80;99.90
19493;DHT22;9887;54.366;10.958;2022-10-31T10:02:30;13.70;99.90
19493;DHT22;9887;54.366;10.958;2022-10-31T10:05:03;13.80;99.90
19493;DHT22;9887;54.366;10.958;2022-10-31T10:07:44;13.80;99.90
19493;DHT22;9887;54.366;10.958;2022-10-31T10:10:30;13.80;99.90
19493;DHT22;9887;54.366;10.958;2022-10-31T10:13:40;13.80;99.90
19493;DHT22;9887;54.366;10.958;2022-10-31T10:16:27;13.80;99.90
19493;DHT22;9887;54.366;10.958;2022-10-31T10:19:11;13.80;99.90
19493;DHT22;9887;54.366;10.958;2022-10-31T10:21:48;13.80;99.90
19493;DHT22;9887;54.366;10.958;2022-10-31T10:24:25;13.90;99.90
19493;DHT22;9887;54.366;10.958;2022-10-31T10:27:01;13.90;99.90
19493;DHT22;9887;54.366;10.958;2022-10-31T10:29:39;13.90;99.90
19493;DHT22;9887;54.366;10.958;2022-10-31T10:32:13;14.00;99.90
19493;DHT22;9887;54.366;10.958;2022-10-31T10:34:49;14.00;99.90
19493;DHT22;9887;54.366;10.958;2022-10-31T10:37:25;14.00;99.90
19493;DHT22;9887;54.366;10.958;2022-10-31T10:39:59;14.00;99.90
19493;DHT22;9887;54.366;10.958;2022-10-31T10:42:28;14.00;99.90
19493;DHT22;9887;54.366;10.958;2022-10-31T10:45:16;14.00;99.90
19493;DHT22;9887;54.366;10.958;2022-10-31T10:48:07;14.00;99.90
19493;DHT22;9887;54.366;10.958;2022-10-31T10:50:42;13.90;99.90
19493;DHT22;9887;54.366;10.958;2022-10-31T10:53:22;13.90;99.90
19493;DHT22;9887;54.366;10.958;2022-10-31T10:56:06;13.90;99.90
19493;DHT22;9887;54.366;10.958;2022-10-31T10:58:38;14.00;99.90
19493;DHT22;9887;54.366;10.958;2022-10-31T11:01:10;14.00;99.90
19493;DHT22;9887;54.366;10.958;2022-10-31T11:03:39;14.10;99.90
19493;DHT22;9887;54.366;10.958;2022-10-31T11:06:17;14.00;99.90
19493;DHT22;9887;54.366;10.958;2022-10-31T11:08:48;14.00;99.90
19493;DHT22;9887;54.366;10.958;2022-10-31T11:11:24;14.10;99.90
19493;DHT22;9887;54.366;10.958;2022-10-31T11:13:59;14.10;99.90
19493;DHT22;9887;54.366;10.958;2022-10-31T11:16:31;14.00;99.90
19493;DHT22;9887;54.366;10.958;2022-10-31T11:19:16;14.10;99.90
19493;DHT22;9887;54.366;10.958;2022-10-31T11:21:45;14.00;99.90
19493;DHT22;9887;54.366;10.958;2022-10-31T11:24:22;14.00;99.90
19493;DHT22;9887;54.366;10.958;2022-10-31T11:27:09;14.00;99.90
19493;DHT22;9887;54.366;10.958;2022-10-31T11:29:39;14.10;99.90
19493;DHT22;9887;54.366;10.958;2022-10-31T11:32:18;14.10;99.90
19493;DHT22;9887;54.366;10.958;2022-10-31T11:34:48;14.10;99.90
19493;DHT22;9887;54.366;10.958;2022-10-31T11:37:20;14.10;99.90
19493;DHT22;9887;54.366;10.958;2022-10-31T11:39:52;14.20;99.90
19493;DHT22;9887;54.366;10.958;2022-10-31T11:42:22;14.20;99.90
19493;DHT22;9887;54.366;10.958;2022-10-31T11:44:52;14.40;99.90
19493;DHT22;9887;54.366;10.958;2022-10-31T11:47:25;14.30;99.90
19493;DHT22;9887;54.366;10.958;2022-10-31T11:49:54;14.40;99.90
19493;DHT22;9887;54.366;10.958;2022-10-31T11:52:25;14.70;99.90
19493;DHT22;9887;54.366;10.958;2022-10-31T11:54:56;14.30;99.90
19493;DHT22;9887;54.366;10.958;2022-10-31T11:57:27;14.60;99.90
19493;DHT22;9887;54.366;10.958;2022-10-31T11:59:57;14.50;99.90
19493;DHT22;9887;54.366;10.958;2022-10-31T12:02:25;14.40;99.90
19493;DHT22;9887;54.366;10.958;2022-10-31T12:05:00;14.30;99.90
19493;DHT22;9887;54.366;10.958;2022-10-31T12:07:30;14.30;99.90
19493;DHT22;9887;54.366;10.958;2022-10-31T12:10:00;14.30;99.90
19493;DHT22;9887;54.366;10.958;2022-10-31T12:12:57;14.40;99.90
19493;DHT22;9887;54.366;10.958;2022-10-31T12:15:32;14.50;99.90
19493;DHT22;9887;54.366;10.958;2022-10-31T12:18:17;14.40;99.90
19493;DHT22;9887;54.366;10.958;2022-10-31T12:21:03;14.40;99.90
19493;DHT22;9887;54.366;10.958;2022-10-31T12:23:42;14.40;99.90
19493;DHT22;9887;54.366;10.958;2022-10-31T12:26:17;14.40;99.90
19493;DHT22;9887;54.366;10.958;2022-10-31T12:29:11;14.40;99.90
19493;DHT22;9887;54.366;10.958;2022-10-31T12:31:53;14.50;99.90
19493;DHT22;9887;54.366;10.958;2022-10-31T12:34:40;14.40;99.90
19493;DHT22;9887;54.366;10.958;2022-10-31T12:37:24;14.50;99.90
19493;DHT22;9887;54.366;10.958;2022-10-31T12:40:09;14.50;99.90
19493;DHT22;9887;54.366;10.958;2022-10-31T12:42:54;14.60;99.90
19493;DHT22;9887;54.366;10.958;2022-10-31T12:45:36;14.50;99.90
19493;DHT22;9887;54.366;10.958;2022-10-31T12:48:19;14.60;99.90
19493;DHT22;9887;54.366;10.958;2022-10-31T12:50:55;14.60;99.90
19493;DHT22;9887;54.366;10.958;2022-10-31T12:53:37;14.60;99.90
19493;DHT22;9887;54.366;10.958;2022-10-31T12:56:20;14.50;99.90
19493;DHT22;9887;54.366;10.958;2022-10-31T12:58:53;14.60;99.90
19493;DHT22;9887;54.366;10.958;2022-10-31T13:01:26;14.40;99.90
19493;DHT22;9887;54.366;10.958;2022-10-31T13:03:58;14.30;99.90
19493;DHT22;9887;54.366;10.958;2022-10-31T13:06:32;14.30;99.90
19493;DHT22;9887;54.366;10.958;2022-10-31T13:09:02;14.40;99.90
19493;DHT22;9887;54.366;10.958;2022-10-31T13:11:34;14.40;99.90
19493;DHT22;9887;54.366;10.958;2022-10-31T13:14:06;14.50;99.90
19493;DHT22;9887;54.366;10.958;2022-10-31T13:16:38;14.40;99.90
19493;DHT22;9887;54.366;10.958;2022-10-31T13:19:13;14.50;99.90
19493;DHT22;9887;54.366;10.958;2022-10-31T13:21:51;14.50;99.90
19493;DHT22;9887;54.366;10.958;2022-10-31T13:24:26;14.60;99.90
19493;DHT22;9887;54.366;10.958;2022-10-31T13:26:59;14.60;99.90
19493;DHT22;9887;54.366;10.958;2022-10-31T13:29:32;14.60;99.90
19493;DHT22;9887;54.366;10.958;2022-10-31T13:32:04;14.70;99.90
19493;DHT22;9887;54.366;10.958;2022-10-31T13:34:34;14.60;99.90
19493;DHT22;9887;54.366;10.958;2022-10-31T13:37:12;14.70;99.90
19493;DHT22;9887;54.366;10.958;2022-10-31T13:39:51;14.80;99.90
19493;DHT22;9887;54.366;10.958;2022-10-31T13:42:29;14.90;99.90
19493;DHT22;9887;54.366;10.958;2022-10-31T13:45:12;15.20;99.90
19493;DHT22;9887;54.366;10.958;2022-10-31T13:47:41;15.60;99.90
19493;DHT22;9887;54.366;10.958;2022-10-31T13:50:20;15.80;99.90
19493;DHT22;9887;54.366;10.958;2022-10-31T13:52:48;16.00;99.90
19493;DHT22;9887;54.366;10.958;2022-10-31T13:55:35;16.00;99.90
19493;DHT22;9887;54.366;10.958;2022-10-31T13:58:04;15.90;99.90
19493;DHT22;9887;54.366;10.958;2022-10-31T14:00:33;15.80;99.90
19493;DHT22;9887;54.366;10.958;2022-10-31T14:03:03;15.60;99.90
19493;DHT22;9887;54.366;10.958;2022-10-31T14:05:32;15.60;99.90
19493;DHT22;9887;54.366;10.958;2022-10-31T14:08:03;15.50;99.90
19493;DHT22;9887;54.366;10.958;2022-10-31T14:10:33;15.40;99.90
19493;DHT22;9887;54.366;10.958;2022-10-31T14:13:05;15.30;99.90
19493;DHT22;9887;54.366;10.958;2022-10-31T14:15:36;15.30;99.90
19493;DHT22;9887;54.366;10.958;2022-10-31T14:18:06;15.20;99.90
19493;DHT22;9887;54.366;10.958;2022-10-31T14:20:44;15.10;99.90
19493;DHT22;9887;54.366;10.958;2022-10-31T14:23:37;15.10;99.90
19493;DHT22;9887;54.366;10.958;2022-10-31T14:26:17;15.00;99.90
19493;DHT22;9887;54.366;10.958;2022-10-31T14:28:46;14.90;99.90
19493;DHT22;9887;54.366;10.958;2022-10-31T14:31:31;14.80;99.90
19493;DHT22;9887;54.366;10.958;2022-10-31T14:34:18;14.60;99.90
19493;DHT22;9887;54.366;10.958;2022-10-31T14:39:42;14.50;99.90
19493;DHT22;9887;54.366;10.958;2022-10-31T14:42:25;14.40;99.90
19493;DHT22;9887;54.366;10.958;2022-10-31T14:45:09;14.30;99.90
19493;DHT22;9887;54.366;10.958;2022-10-31T14:47:49;14.30;99.90
19493;DHT22;9887;54.366;10.958;2022-10-31T14:50:30;14.20;99.90
19493;DHT22;9887;54.366;10.958;2022-10-31T14:53:05;14.10;99.90
19493;DHT22;9887;54.366;10.958;2022-10-31T14:55:34;14.00;99.90
19493;DHT22;9887;54.366;10.958;2022-10-31T14:58:05;14.00;99.90
19493;DHT22;9887;54.366;10.958;2022-10-31T15:00:35;13.90;99.90
19493;DHT22;9887;54.366;10.958;2022-10-31T15:03:11;13.90;99.90
19493;DHT22;9887;54.366;10.958;2022-10-31T15:05:46;13.80;99.90
19493;DHT22;9887;54.366;10.958;2022-10-31T15:08:27;13.80;99.90
19493;DHT22;9887;54.366;10.958;2022-10-31T15:10:56;13.70;99.90
19493;DHT22;9887;54.366;10.958;2022-10-31T15:13:24;13.70;99.90
19493;DHT22;9887;54.366;10.958;2022-10-31T15:15:54;13.70;99.90
19493;DHT22;9887;54.366;10.958;2022-10-31T15:18:26;13.70;99.90
19493;DHT22;9887;54.366;10.958;2022-10-31T15:20:55;13.70;99.90
19493;DHT22;9887;54.366;10.958;2022-10-31T15:23:25;13.60;99.90
19493;DHT22;9887;54.366;10.958;2022-10-31T15:26:01;13.60;99.90
19493;DHT22;9887;54.366;10.958;2022-10-31T15:28:30;13.60;99.90
19493;DHT22;9887;54.366;10.958;2022-10-31T15:30:59;13.50;99.90
19493;DHT22;9887;54.366;10.958;2022-10-31T15:33:29;13.50;99.90
19493;DHT22;9887;54.366;10.958;2022-10-31T15:36:05;13.50;99.90
19493;DHT22;9887;54.366;10.958;2022-10-31T15:38:33;13.40;99.90
19493;DHT22;9887;54.366;10.958;2022-10-31T15:41:04;13.40;99.90
19493;DHT22;9887;54.366;10.958;2022-10-31T15:43:36;13.40;99.90
19493;DHT22;9887;54.366;10.958;2022-10-31T15:46:07;13.40;99.90
19493;DHT22;9887;54.366;10.958;2022-10-31T15:48:38;13.40;99.90
19493;DHT22;9887;54.366;10.958;2022-10-31T15:51:07;13.40;99.90
19493;DHT22;9887;54.366;10.958;2022-10-31T15:53:37;13.40;99.90
19493;DHT22;9887;54.366;10.958;2022-10-31T15:56:12;13.40;99.90
19493;DHT22;9887;54.366;10.958;2022-10-31T15:58:44;13.40;99.90
19493;DHT22;9887;54.366;10.958;2022-10-31T16:01:21;13.40;99.90
19493;DHT22;9887;54.366;10.958;2022-10-31T16:04:05;13.30;99.90
19493;DHT22;9887;54.366;10.958;2022-10-31T16:06:58;13.30;99.90
19493;DHT22;9887;54.366;10.958;2022-10-31T16:09:27;13.20;99.90
19493;DHT22;9887;54.366;10.958;2022-10-31T16:11:56;13.20;99.90
19493;DHT22;9887;54.366;10.958;2022-10-31T16:14:27;13.20;99.90
19493;DHT22;9887;54.366;10.958;2022-10-31T16:16:57;13.20;99.90
19493;DHT22;9887;54.366;10.958;2022-10-31T16:19:30;13.20;99.90
19493;DHT22;9887;54.366;10.958;2022-10-31T16:22:04;13.10;99.90